sensor_id;sensor_type;location;lat;lon;timestamp;pressure;altitude;pressure_sealevel;temperature;humidity
74437;BME280;62868;52.360;30.424;2023-10-19T00:01:20;1020.7;;;7.9;64.3
74437;BME280;62868;52.360;30.424;2023-10-19T00:05:52;1020.7;;;8;64.2
74437;BME280;62868;52.360;30.424;2023-10-19T00:10:32;1020.7;;;8;64.1
74437;BME280;62868;52.360;30.424;2023-10-19T00:16:00;1020.7;;;8.1;64.1
74437;BME280;62868;52.360;30.424;2023-10-19T00:21:10;1020.7;;;8;64.1
74437;BME280;62868;52.360;30.424;2023-10-19T00:26:20;1020.7;;;8.1;64
74437;BME280;62868;52.360;30.424;2023-10-19T00:31:04;1020.7;;;8.1;64
74437;BME280;62868;52.360;30.424;2023-10-19T00:35:33;1020.7;;;8.2;63.9
74437;BME280;62868;52.360;30.424;2023-10-19T00:41:00;1020.7;;;8.2;63.9
74437;BME280;62868;52.360;30.424;2023-10-19T00:45:52;1020.6;;;8.3;63.9
74437;BME280;62868;52.360;30.424;2023-10-19T00:50:58;1020.6;;;8.3;63.9
74437;BME280;62868;52.360;30.424;2023-10-19T00:56:10;1020.6;;;8.3;63.9
74437;BME280;62868;52.360;30.424;2023-10-19T01:00:56;1020.6;;;8.3;63.8
74437;BME280;62868;52.360;30.424;2023-10-19T01:05:44;1020.7;;;8.4;63.7
74437;BME280;62868;52.360;30.424;2023-10-19T01:10:58;1020.7;;;8.4;63.7
74437;BME280;62868;52.360;30.424;2023-10-19T01:16:20;1020.6;;;8.4;63.7
74437;BME280;62868;52.360;30.424;2023-10-19T01:20:32;1020.6;;;8.4;63.7
74437;BME280;62868;52.360;30.424;2023-10-19T01:25:47;1020.6;;;8.4;63.7
74437;BME280;62868;52.360;30.424;2023-10-19T01:30:42;1020.6;;;8.4;63.8
74437;BME280;62868;52.360;30.424;2023-10-19T01:36:08;1020.6;;;8.4;63.8
74437;BME280;62868;52.360;30.424;2023-10-19T01:41:21;1020.5;;;8.4;63.8
74437;BME280;62868;52.360;30.424;2023-10-19T01:46:11;1020.5;;;8.4;63.8
74437;BME280;62868;52.360;30.424;2023-10-19T01:50:50;1020.5;;;8.5;63.8
74437;BME280;62868;52.360;30.424;2023-10-19T01:55:38;1020.4;;;8.5;63.8
74437;BME280;62868;52.360;30.424;2023-10-19T02:00:50;1020.4;;;8.5;63.8
74437;BME280;62868;52.360;30.424;2023-10-19T02:06:20;1020.3;;;8.5;63.9
74437;BME280;62868;52.360;30.424;2023-10-19T02:10:38;1020.3;;;8.5;63.9
74437;BME280;62868;52.360;30.424;2023-10-19T02:16:00;1020.4;;;8.5;64
74437;BME280;62868;52.360;30.424;2023-10-19T02:21:00;1020.4;;;8.5;63.9
74437;BME280;62868;52.360;30.424;2023-10-19T02:26:08;1020.4;;;8.6;63.9
74437;BME280;62868;52.360;30.424;2023-10-19T02:31:20;1020.4;;;8.6;63.8
74437;BME280;62868;52.360;30.424;2023-10-19T02:36:10;1020.5;;;8.6;63.9
74437;BME280;62868;52.360;30.424;2023-10-19T02:40:38;1020.5;;;8.6;64
74437;BME280;62868;52.360;30.424;2023-10-19T02:45:34;1020.5;;;8.7;63.9
74437;BME280;62868;52.360;30.424;2023-10-19T02:51:08;1020.5;;;8.7;64
74437;BME280;62868;52.360;30.424;2023-10-19T02:56:20;1020.5;;;8.7;64
74437;BME280;62868;52.360;30.424;2023-10-19T03:00:42;1020.5;;;8.7;64
74437;BME280;62868;52.360;30.424;2023-10-19T03:05:32;1020.5;;;8.7;64
74437;BME280;62868;52.360;30.424;2023-10-19T03:11:00;1020.5;;;8.7;64.1
74437;BME280;62868;52.360;30.424;2023-10-19T03:16:08;1020.5;;;8.8;64
74437;BME280;62868;52.360;30.424;2023-10-19T03:21:20;1020.5;;;8.8;64.1
74437;BME280;62868;52.360;30.424;2023-10-19T03:25:32;1020.5;;;8.8;64.1
74437;BME280;62868;52.360;30.424;2023-10-19T03:30:32;1020.5;;;8.8;64.1
74437;BME280;62868;52.360;30.424;2023-10-19T03:35:46;1020.5;;;8.9;64.2
74437;BME280;62868;52.360;30.424;2023-10-19T03:41:18;1020.4;;;8.9;64.2
74437;BME280;62868;52.360;30.424;2023-10-19T03:45:52;1020.4;;;8.9;64.2
74437;BME280;62868;52.360;30.424;2023-10-19T03:50:34;1020.4;;;9;64.2
74437;BME280;62868;52.360;30.424;2023-10-19T03:55:40;1020.4;;;8.9;64.2
74437;BME280;62868;52.360;30.424;2023-10-19T04:00:42;1020.3;;;8.9;64.3
74437;BME280;62868;52.360;30.424;2023-10-19T04:06:20;1020.3;;;8.9;64.3
74437;BME280;62868;52.360;30.424;2023-10-19T04:10:32;1020.3;;;8.9;64.4
74437;BME280;62868;52.360;30.424;2023-10-19T04:15:38;1020.3;;;8.9;64.3
74437;BME280;62868;52.360;30.424;2023-10-19T04:20:50;1020.3;;;8.8;64.4
74437;BME280;62868;52.360;30.424;2023-10-19T04:25:38;1020.3;;;8.9;64.4
74437;BME280;62868;52.360;30.424;2023-10-19T04:31:18;1020.2;;;8.8;64.4
74437;BME280;62868;52.360;30.424;2023-10-19T04:35:34;1020.2;;;8.8;64.3
74437;BME280;62868;52.360;30.424;2023-10-19T04:40:40;1020.3;;;8.8;64.3
74437;BME280;62868;52.360;30.424;2023-10-19T04:45:39;1020.4;;;8.8;64.4
74437;BME280;62868;52.360;30.424;2023-10-19T04:51:04;1020.4;;;8.9;64.3
74437;BME280;62868;52.360;30.424;2023-10-19T04:56:18;1020.5;;;8.8;64.4
74437;BME280;62868;52.360;30.424;2023-10-19T05:01:10;1020.5;;;8.8;64.4
74437;BME280;62868;52.360;30.424;2023-10-19T05:05:32;1020.6;;;8.8;64.4
74437;BME280;62868;52.360;30.424;2023-10-19T05:10:52;1020.7;;;8.9;64.3
74437;BME280;62868;52.360;30.424;2023-10-19T05:15:38;1020.7;;;8.9;64.3
74437;BME280;62868;52.360;30.424;2023-10-19T05:21:18;1020.8;;;9;64.2
74437;BME280;62868;52.360;30.424;2023-10-19T05:26:10;1020.8;;;9;64.2
74437;BME280;62868;52.360;30.424;2023-10-19T05:30:53;1020.8;;;9.1;64.1
74437;BME280;62868;52.360;30.424;2023-10-19T05:35:36;1020.9;;;9.2;64
74437;BME280;62868;52.360;30.424;2023-10-19T05:41:04;1021;;;9.3;63.9
74437;BME280;62868;52.360;30.424;2023-10-19T05:46:18;1021;;;9.3;63.9
74437;BME280;62868;52.360;30.424;2023-10-19T05:50:50;1021;;;9.4;63.8
74437;BME280;62868;52.360;30.424;2023-10-19T05:55:32;1021;;;9.5;63.8
74437;BME280;62868;52.360;30.424;2023-10-19T06:00:32;1021;;;9.6;63.6
74437;BME280;62868;52.360;30.424;2023-10-19T06:06:02;1021;;;9.7;63.5
74437;BME280;62868;52.360;30.424;2023-10-19T06:11:16;1021;;;9.8;63.4
74437;BME280;62868;52.360;30.424;2023-10-19T06:16:08;1021;;;9.8;63.3
74437;BME280;62868;52.360;30.424;2023-10-19T06:21:02;1021.1;;;9.8;63.3
74437;BME280;62868;52.360;30.424;2023-10-19T06:25:56;1021.1;;;9.8;63.2
74437;BME280;62868;52.360;30.424;2023-10-19T06:31:18;1021.1;;;9.9;63.1
74437;BME280;62868;52.360;30.424;2023-10-19T06:36:16;1021.1;;;10;63
74437;BME280;62868;52.360;30.424;2023-10-19T06:40:48;1021.1;;;10.1;62.9
74437;BME280;62868;52.360;30.424;2023-10-19T06:46:10;1021.1;;;10.2;62.7
74437;BME280;62868;52.360;30.424;2023-10-19T06:50:46;1021.1;;;10.1;62.8
74437;BME280;62868;52.360;30.424;2023-10-19T06:55:32;1021.1;;;10.1;62.9
74437;BME280;62868;52.360;30.424;2023-10-19T07:01:18;1021.1;;;10.1;62.7
74437;BME280;62868;52.360;30.424;2023-10-19T07:06:06;1021.1;;;10.2;62.7
74437;BME280;62868;52.360;30.424;2023-10-19T07:10:42;1021.2;;;10.3;62.6
74437;BME280;62868;52.360;30.424;2023-10-19T07:15:50;1021.1;;;10.3;62.6
74437;BME280;62868;52.360;30.424;2023-10-19T07:21:06;1021.2;;;10.4;62.4
74437;BME280;62868;52.360;30.424;2023-10-19T07:26:18;1021.2;;;10.6;62.1
74437;BME280;62868;52.360;30.424;2023-10-19T07:30:32;1021.2;;;10.8;61.9
74437;BME280;62868;52.360;30.424;2023-10-19T07:35:38;1021.2;;;10.9;61.7
74437;BME280;62868;52.360;30.424;2023-10-19T07:40:40;1021.2;;;11.2;61.4
74437;BME280;62868;52.360;30.424;2023-10-19T07:45:46;1021.2;;;11.3;61.2
74437;BME280;62868;52.360;30.424;2023-10-19T07:50:50;1021.2;;;11.8;60.6
74437;BME280;62868;52.360;30.424;2023-10-19T07:56:06;1021.2;;;12.1;60.3
74437;BME280;62868;52.360;30.424;2023-10-19T08:01:04;1021.2;;;12.4;59.9
74437;BME280;62868;52.360;30.424;2023-10-19T08:05:44;1021.1;;;12.4;59.9
74437;BME280;62868;52.360;30.424;2023-10-19T08:10:54;1021.1;;;12.5;59.8
74437;BME280;62868;52.360;30.424;2023-10-19T08:16:16;1021.1;;;12.4;59.8
74437;BME280;62868;52.360;30.424;2023-10-19T08:20:52;1021.2;;;12.4;59.7
74437;BME280;62868;52.360;30.424;2023-10-19T08:25:44;1021.2;;;12.3;59.5
74437;BME280;62868;52.360;30.424;2023-10-19T08:30:36;1021.2;;;12.2;59.3
74437;BME280;62868;52.360;30.424;2023-10-19T08:36:15;1021.2;;;12.2;59.1
74437;BME280;62868;52.360;30.424;2023-10-19T08:41:14;1021.2;;;12.3;58.9
74437;BME280;62868;52.360;30.424;2023-10-19T08:46:08;1021.3;;;12.4;58.6
74437;BME280;62868;52.360;30.424;2023-10-19T08:50:34;1021.3;;;12.4;58.6
74437;BME280;62868;52.360;30.424;2023-10-19T08:55:44;1021.4;;;12.4;58.4
74437;BME280;62868;52.360;30.424;2023-10-19T09:00:42;1021.4;;;12.6;58
74437;BME280;62868;52.360;30.424;2023-10-19T09:06:16;1021.4;;;12.6;57.8
74437;BME280;62868;52.360;30.424;2023-10-19T09:10:52;1021.4;;;12.8;57.5
74437;BME280;62868;52.360;30.424;2023-10-19T09:15:39;1021.4;;;12.7;57.4
74437;BME280;62868;52.360;30.424;2023-10-19T09:20:43;1021.4;;;12.5;57.4
74437;BME280;62868;52.360;30.424;2023-10-19T09:26:14;1021.5;;;12.4;57.4
74437;BME280;62868;52.360;30.424;2023-10-19T09:30:42;1021.5;;;12.2;57.3
74437;BME280;62868;52.360;30.424;2023-10-19T09:36:06;1021.4;;;12.2;57.2
74437;BME280;62868;52.360;30.424;2023-10-19T09:41:02;1021.4;;;12.2;57.1
74437;BME280;62868;52.360;30.424;2023-10-19T09:45:45;1021.5;;;12.2;57.1
74437;BME280;62868;52.360;30.424;2023-10-19T09:51:09;1021.4;;;12.2;57
74437;BME280;62868;52.360;30.424;2023-10-19T09:56:10;1021.5;;;12.2;56.8
74437;BME280;62868;52.360;30.424;2023-10-19T10:00:52;1021.4;;;12.4;56.6
74437;BME280;62868;52.360;30.424;2023-10-19T10:05:44;1021.5;;;12.5;56.5
74437;BME280;62868;52.360;30.424;2023-10-19T10:10:42;1021.4;;;12.6;56.2
74437;BME280;62868;52.360;30.424;2023-10-19T10:15:55;1021.4;;;12.9;55.8
74437;BME280;62868;52.360;30.424;2023-10-19T10:21:17;1021.4;;;13.2;55.4
74437;BME280;62868;52.360;30.424;2023-10-19T10:26:06;1021.3;;;13.2;55.4
74437;BME280;62868;52.360;30.424;2023-10-19T10:31:10;1021.2;;;13.4;55
74437;BME280;62868;52.360;30.424;2023-10-19T10:36:00;1021.2;;;13.7;54.4
74437;BME280;62868;52.360;30.424;2023-10-19T10:40:52;1021.2;;;14.1;53.9
74437;BME280;62868;52.360;30.424;2023-10-19T10:46:16;1021.1;;;14.6;53.3
74437;BME280;62868;52.360;30.424;2023-10-19T10:50:54;1021.1;;;14.9;53.1
74437;BME280;62868;52.360;30.424;2023-10-19T10:56:04;1021.1;;;15;52.8
74437;BME280;62868;52.360;30.424;2023-10-19T11:00:32;1021.1;;;14.8;53.1
74437;BME280;62868;52.360;30.424;2023-10-19T11:06:06;1021.1;;;14.5;53.3
74437;BME280;62868;52.360;30.424;2023-10-19T11:11:18;1021.1;;;14.2;53.3
74437;BME280;62868;52.360;30.424;2023-10-19T11:15:58;1021.1;;;14.1;53.3
74437;BME280;62868;52.360;30.424;2023-10-19T11:21:03;1021;;;13.9;53.3
74437;BME280;62868;52.360;30.424;2023-10-19T11:25:32;1021;;;13.7;53.3
74437;BME280;62868;52.360;30.424;2023-10-19T11:30:48;1021;;;13.6;53.3
74437;BME280;62868;52.360;30.424;2023-10-19T11:36:19;1020.9;;;13.5;53.3
74437;BME280;62868;52.360;30.424;2023-10-19T11:40:48;1020.9;;;13.5;53.2
74437;BME280;62868;52.360;30.424;2023-10-19T11:45:44;1020.9;;;13.6;53.1
74437;BME280;62868;52.360;30.424;2023-10-19T11:50:38;1020.8;;;13.7;52.9
74437;BME280;62868;52.360;30.424;2023-10-19T11:56:11;1020.8;;;13.9;52.5
74437;BME280;62868;52.360;30.424;2023-10-19T12:01:16;1020.8;;;14.1;52.4
74437;BME280;62868;52.360;30.424;2023-10-19T12:06:09;1020.8;;;14.2;52.4
74437;BME280;62868;52.360;30.424;2023-10-19T12:10:58;1020.8;;;14.2;52.4
74437;BME280;62868;52.360;30.424;2023-10-19T12:16:18;1020.7;;;14.2;52.2
74437;BME280;62868;52.360;30.424;2023-10-19T12:20:32;1020.7;;;14.2;52.2
74437;BME280;62868;52.360;30.424;2023-10-19T12:26:04;1020.7;;;14.3;52
74437;BME280;62868;52.360;30.424;2023-10-19T12:30:48;1020.6;;;14.2;52
74437;BME280;62868;52.360;30.424;2023-10-19T12:35:57;1020.6;;;14.2;52
74437;BME280;62868;52.360;30.424;2023-10-19T12:40:43;1020.6;;;14;52
74437;BME280;62868;52.360;30.424;2023-10-19T12:45:41;1020.6;;;13.9;51.9
74437;BME280;62868;52.360;30.424;2023-10-19T12:51:18;1020.6;;;13.7;51.9
74437;BME280;62868;52.360;30.424;2023-10-19T12:56:18;1020.6;;;13.7;51.9
74437;BME280;62868;52.360;30.424;2023-10-19T13:01:04;1020.5;;;13.6;51.9
74437;BME280;62868;52.360;30.424;2023-10-19T13:06:18;1020.5;;;13.4;51.9
74437;BME280;62868;52.360;30.424;2023-10-19T13:11:09;1020.5;;;13.4;52
74437;BME280;62868;52.360;30.424;2023-10-19T13:16:02;1020.4;;;13.2;52
74437;BME280;62868;52.360;30.424;2023-10-19T13:20:33;1020.4;;;13.1;52.1
74437;BME280;62868;52.360;30.424;2023-10-19T13:26:06;1020.4;;;13;52.2
74437;BME280;62868;52.360;30.424;2023-10-19T13:30:39;1020.3;;;12.9;52.3
74437;BME280;62868;52.360;30.424;2023-10-19T13:35:32;1020.3;;;12.8;52.3
74437;BME280;62868;52.360;30.424;2023-10-19T13:41:14;1020.4;;;12.7;52.3
74437;BME280;62868;52.360;30.424;2023-10-19T13:45:56;1020.4;;;12.6;52.5
74437;BME280;62868;52.360;30.424;2023-10-19T13:51:04;1020.4;;;12.5;52.5
74437;BME280;62868;52.360;30.424;2023-10-19T13:56:16;1020.4;;;12.4;52.7
74437;BME280;62868;52.360;30.424;2023-10-19T14:00:41;1020.4;;;12.4;52.8
74437;BME280;62868;52.360;30.424;2023-10-19T14:06:04;1020.4;;;12.4;52.9
74437;BME280;62868;52.360;30.424;2023-10-19T14:10:32;1020.4;;;12.3;53
74437;BME280;62868;52.360;30.424;2023-10-19T14:15:48;1020.3;;;12.2;53.2
74437;BME280;62868;52.360;30.424;2023-10-19T14:20:38;1020.4;;;12;53.4
74437;BME280;62868;52.360;30.424;2023-10-19T14:25:36;1020.3;;;11.9;53.5
74437;BME280;62868;52.360;30.424;2023-10-19T14:31:16;1020.3;;;11.9;53.7
74437;BME280;62868;52.360;30.424;2023-10-19T14:36:16;1020.3;;;11.8;54
74437;BME280;62868;52.360;30.424;2023-10-19T14:41:02;1020.2;;;11.7;54.3
74437;BME280;62868;52.360;30.424;2023-10-19T14:46:16;1020.2;;;11.6;54.4
74437;BME280;62868;52.360;30.424;2023-10-19T14:50:48;1020.2;;;11.4;54.7
74437;BME280;62868;52.360;30.424;2023-10-19T14:55:56;1020.1;;;11.2;55.1
74437;BME280;62868;52.360;30.424;2023-10-19T15:00:50;1020.1;;;11;55.2
74437;BME280;62868;52.360;30.424;2023-10-19T15:05:32;1020;;;10.8;55.3
74437;BME280;62868;52.360;30.424;2023-10-19T15:10:33;1020;;;10.5;55.6
74437;BME280;62868;52.360;30.424;2023-10-19T15:15:38;1020;;;10.3;56
74437;BME280;62868;52.360;30.424;2023-10-19T15:21:16;1019.9;;;10.2;56.1
74437;BME280;62868;52.360;30.424;2023-10-19T15:26:16;1020;;;10.1;56.3
74437;BME280;62868;52.360;30.424;2023-10-19T15:30:56;1020;;;10.1;56.5
74437;BME280;62868;52.360;30.424;2023-10-19T15:36:18;1020;;;10;56.6
74437;BME280;62868;52.360;30.424;2023-10-19T15:40:48;1020;;;10;56.6
74437;BME280;62868;52.360;30.424;2023-10-19T15:46:00;1020;;;10;56.7
74437;BME280;62868;52.360;30.424;2023-10-19T15:50:56;1020;;;10;56.6
74437;BME280;62868;52.360;30.424;2023-10-19T15:55:48;1020;;;10;56.7
74437;BME280;62868;52.360;30.424;2023-10-19T16:00:32;1019.9;;;9.9;56.8
74437;BME280;62868;52.360;30.424;2023-10-19T16:05:50;1020;;;9.8;56.8
74437;BME280;62868;52.360;30.424;2023-10-19T16:11:14;1019.9;;;9.7;56.8
74437;BME280;62868;52.360;30.424;2023-10-19T16:15:46;1019.9;;;9.6;56.9
74437;BME280;62868;52.360;30.424;2023-10-19T16:21:03;1019.9;;;9.6;57
74437;BME280;62868;52.360;30.424;2023-10-19T16:26:17;1020;;;9.6;57.1
74437;BME280;62868;52.360;30.424;2023-10-19T16:30:48;1020;;;9.4;57.3
74437;BME280;62868;52.360;30.424;2023-10-19T16:36:03;1020;;;9.2;57.3
74437;BME280;62868;52.360;30.424;2023-10-19T16:40:42;1020;;;9;57.4
74437;BME280;62868;52.360;30.424;2023-10-19T16:45:38;1020.1;;;8.8;57.6
74437;BME280;62868;52.360;30.424;2023-10-19T16:50:52;1020;;;8.7;57.7
74437;BME280;62868;52.360;30.424;2023-10-19T16:56:06;1019.9;;;8.6;57.8
74437;BME280;62868;52.360;30.424;2023-10-19T17:00:58;1019.8;;;8.3;58.1
74437;BME280;62868;52.360;30.424;2023-10-19T17:05:58;1019.8;;;8.1;58.2
74437;BME280;62868;52.360;30.424;2023-10-19T17:11:16;1019.7;;;8;58.3
74437;BME280;62868;52.360;30.424;2023-10-19T17:16:16;1019.8;;;7.9;58.5
74437;BME280;62868;52.360;30.424;2023-10-19T17:20:54;1019.9;;;7.8;58.6
74437;BME280;62868;52.360;30.424;2023-10-19T17:26:16;1019.9;;;7.6;58.7
74437;BME280;62868;52.360;30.424;2023-10-19T17:30:32;1019.9;;;7.5;58.8
74437;BME280;62868;52.360;30.424;2023-10-19T17:35:56;1019.9;;;7.4;59
74437;BME280;62868;52.360;30.424;2023-10-19T17:40:58;1019.9;;;7.2;59.2
74437;BME280;62868;52.360;30.424;2023-10-19T17:45:39;1019.9;;;7.1;59.3
74437;BME280;62868;52.360;30.424;2023-10-19T17:50:58;1019.9;;;7;59.4
74437;BME280;62868;52.360;30.424;2023-10-19T17:56:16;1019.8;;;6.9;59.5
74437;BME280;62868;52.360;30.424;2023-10-19T18:01:16;1019.8;;;6.8;59.6
74437;BME280;62868;52.360;30.424;2023-10-19T18:06:16;1019.8;;;6.8;59.6
74437;BME280;62868;52.360;30.424;2023-10-19T18:10:54;1019.8;;;6.7;59.7
74437;BME280;62868;52.360;30.424;2023-10-19T18:16:16;1019.9;;;6.7;59.8
74437;BME280;62868;52.360;30.424;2023-10-19T18:20:38;1019.9;;;6.7;59.8
74437;BME280;62868;52.360;30.424;2023-10-19T18:25:32;1019.8;;;6.6;59.9
74437;BME280;62868;52.360;30.424;2023-10-19T18:30:57;1019.8;;;6.6;59.9
74437;BME280;62868;52.360;30.424;2023-10-19T18:35:56;1019.8;;;6.6;59.9
74437;BME280;62868;52.360;30.424;2023-10-19T18:40:53;1019.8;;;6.6;59.9
74437;BME280;62868;52.360;30.424;2023-10-19T18:45:59;1019.9;;;6.6;59.9
74437;BME280;62868;52.360;30.424;2023-10-19T18:51:16;1019.8;;;6.6;59.9
74437;BME280;62868;52.360;30.424;2023-10-19T18:56:16;1019.8;;;6.6;59.9
74437;BME280;62868;52.360;30.424;2023-10-19T19:01:16;1019.8;;;6.6;59.9
74437;BME280;62868;52.360;30.424;2023-10-19T19:06:17;1019.8;;;6.6;59.9
74437;BME280;62868;52.360;30.424;2023-10-19T19:10:51;1019.8;;;6.5;60
74437;BME280;62868;52.360;30.424;2023-10-19T19:15:49;1019.8;;;6.5;60
74437;BME280;62868;52.360;30.424;2023-10-19T19:20:58;1019.7;;;6.5;60.1
74437;BME280;62868;52.360;30.424;2023-10-19T19:25:47;1019.6;;;6.4;60.2
74437;BME280;62868;52.360;30.424;2023-10-19T19:30:59;1019.6;;;6.4;60.2
74437;BME280;62868;52.360;30.424;2023-10-19T19:35:58;1019.6;;;6.4;60.2
74437;BME280;62868;52.360;30.424;2023-10-19T19:41:18;1019.5;;;6.5;60.2
74437;BME280;62868;52.360;30.424;2023-10-19T19:46:16;1019.5;;;6.5;60.2
74437;BME280;62868;52.360;30.424;2023-10-19T19:51:02;1019.3;;;6.6;60.2
74437;BME280;62868;52.360;30.424;2023-10-19T19:56:16;1019.2;;;6.5;60.3
74437;BME280;62868;52.360;30.424;2023-10-19T20:00:32;1019.2;;;6.5;60.3
74437;BME280;62868;52.360;30.424;2023-10-19T20:05:38;1019.1;;;6.4;60.3
74437;BME280;62868;52.360;30.424;2023-10-19T20:10:59;1019.1;;;6.4;60.4
74437;BME280;62868;52.360;30.424;2023-10-19T20:15:50;1018.9;;;6.3;60.4
74437;BME280;62868;52.360;30.424;2023-10-19T20:21:17;1018.9;;;6.3;60.5
74437;BME280;62868;52.360;30.424;2023-10-19T20:25:46;1018.8;;;6.4;60.5
74437;BME280;62868;52.360;30.424;2023-10-19T20:31:17;1018.8;;;6.4;60.6
74437;BME280;62868;52.360;30.424;2023-10-19T20:36:17;1018.5;;;6.4;60.6
74437;BME280;62868;52.360;30.424;2023-10-19T20:40:33;1018.4;;;6.4;60.6
74437;BME280;62868;52.360;30.424;2023-10-19T20:46:17;1018.4;;;6.3;60.8
74437;BME280;62868;52.360;30.424;2023-10-19T20:50:51;1018.4;;;6.2;60.9
74437;BME280;62868;52.360;30.424;2023-10-19T20:55:58;1018.2;;;6.1;61
74437;BME280;62868;52.360;30.424;2023-10-19T21:00:41;1018.3;;;6;61.2
74437;BME280;62868;52.360;30.424;2023-10-19T21:05:33;1018.3;;;6.1;61.1
74437;BME280;62868;52.360;30.424;2023-10-19T21:11:17;1018.2;;;6.1;61.2
74437;BME280;62868;52.360;30.424;2023-10-19T21:15:59;1018;;;6.1;61.2
74437;BME280;62868;52.360;30.424;2023-10-19T21:20:39;1017.9;;;6.1;61.4
74437;BME280;62868;52.360;30.424;2023-10-19T21:26:17;1017.8;;;6.1;61.3
74437;BME280;62868;52.360;30.424;2023-10-19T21:30:33;1017.8;;;6.1;61.4
74437;BME280;62868;52.360;30.424;2023-10-19T21:36:17;1017.8;;;6.1;61.6
74437;BME280;62868;52.360;30.424;2023-10-19T21:40:39;1017.7;;;6;61.6
74437;BME280;62868;52.360;30.424;2023-10-19T21:45:49;1017.7;;;6.1;61.6
74437;BME280;62868;52.360;30.424;2023-10-19T21:50:57;1017.6;;;6.1;61.7
74437;BME280;62868;52.360;30.424;2023-10-19T21:55:43;1017.6;;;6.1;61.8
74437;BME280;62868;52.360;30.424;2023-10-19T22:00:59;1017.5;;;6.2;61.8
74437;BME280;62868;52.360;30.424;2023-10-19T22:05:59;1017.5;;;6.2;61.9
74437;BME280;62868;52.360;30.424;2023-10-19T22:11:03;1017.5;;;6.3;61.9
74437;BME280;62868;52.360;30.424;2023-10-19T22:16:19;1017.4;;;6.4;61.9
74437;BME280;62868;52.360;30.424;2023-10-19T22:20:39;1017.3;;;6.4;62
74437;BME280;62868;52.360;30.424;2023-10-19T22:26:18;1017.3;;;6.5;62
74437;BME280;62868;52.360;30.424;2023-10-19T22:30:33;1017.2;;;6.5;62
74437;BME280;62868;52.360;30.424;2023-10-19T22:35:35;1017.2;;;6.5;62
74437;BME280;62868;52.360;30.424;2023-10-19T22:40:59;1017.1;;;6.5;62.1
74437;BME280;62868;52.360;30.424;2023-10-19T22:45:51;1017;;;6.5;62.1
74437;BME280;62868;52.360;30.424;2023-10-19T22:50:59;1017;;;6.5;62.2
74437;BME280;62868;52.360;30.424;2023-10-19T22:55:41;1017;;;6.5;62.3
74437;BME280;62868;52.360;30.424;2023-10-19T23:01:15;1017;;;6.5;62.3
74437;BME280;62868;52.360;30.424;2023-10-19T23:06:15;1017;;;6.5;62.4
74437;BME280;62868;52.360;30.424;2023-10-19T23:10:39;1017;;;6.6;62.4
74437;BME280;62868;52.360;30.424;2023-10-19T23:16:17;1016.9;;;6.6;62.5
74437;BME280;62868;52.360;30.424;2023-10-19T23:20:33;1016.9;;;6.6;62.5
74437;BME280;62868;52.360;30.424;2023-10-19T23:25:39;1016.8;;;6.7;62.5
74437;BME280;62868;52.360;30.424;2023-10-19T23:30:57;1016.7;;;6.9;62.5
74437;BME280;62868;52.360;30.424;2023-10-19T23:35:47;1016.8;;;6.9;62.5
74437;BME280;62868;52.360;30.424;2023-10-19T23:40:51;1016.8;;;7;62.6
74437;BME280;62868;52.360;30.424;2023-10-19T23:45:47;1016.8;;;7;62.6
74437;BME280;62868;52.360;30.424;2023-10-19T23:51:15;1016.8;;;7.1;62.5
74437;BME280;62868;52.360;30.424;2023-10-19T23:56:17;1016.8;;;7.2;62.5
